< < Back
Terminal Aerodrome Forecast


Current Version              Previous Versions:   1  2  3  4  5  6  7  8  9  

Terminal Aerodrome Forecast

556
FTUS42 KFFC 050130 AAA
TAFATL
TAF AMD
KATL 050130Z 0502/0606 VRB03KT P6SM FEW080 SCT250
     FM051600 24007KT P6SM SCT050 SCT250 PROB30 0520/0523 6SM TSRA
      BKN050CB
     FM060000 24006KT P6SM SCT060 SCT180=

Latest METAR

238
SAUS70 KWBC 050200 RRC
MTRATL
METAR KATL 050152Z 22003KT 10SM FEW250 30/17 A3000 RMK AO2 SLP147
T03000172


USA.gov is the U.S. government's official web portal to all federal, state and local government web resources and services.